sensor_id;sensor_type;location;lat;lon;timestamp;P1;durP1;ratioP1;P2;durP2;ratioP2
75696;SDS011;64312;44.738;20.612;2022-11-20T00:01:20;5.18;;;3.78;;
75696;SDS011;64312;44.738;20.612;2022-11-20T00:03:49;4.57;;;2.92;;
75696;SDS011;64312;44.738;20.612;2022-11-20T00:06:17;5.93;;;3.58;;
75696;SDS011;64312;44.738;20.612;2022-11-20T00:08:44;6.00;;;3.67;;
75696;SDS011;64312;44.738;20.612;2022-11-20T00:11:11;7.05;;;3.53;;
75696;SDS011;64312;44.738;20.612;2022-11-20T00:13:38;6.57;;;3.47;;
75696;SDS011;64312;44.738;20.612;2022-11-20T00:16:05;4.65;;;2.63;;
75696;SDS011;64312;44.738;20.612;2022-11-20T00:18:32;6.85;;;4.22;;
75696;SDS011;64312;44.738;20.612;2022-11-20T00:21:06;6.57;;;3.88;;
75696;SDS011;64312;44.738;20.612;2022-11-20T00:23:36;6.65;;;4.50;;
75696;SDS011;64312;44.738;20.612;2022-11-20T00:26:05;8.98;;;4.80;;
75696;SDS011;64312;44.738;20.612;2022-11-20T00:28:32;6.38;;;4.30;;
75696;SDS011;64312;44.738;20.612;2022-11-20T00:31:07;6.20;;;3.60;;
75696;SDS011;64312;44.738;20.612;2022-11-20T00:33:33;6.85;;;4.32;;
75696;SDS011;64312;44.738;20.612;2022-11-20T00:36:00;7.55;;;4.60;;
75696;SDS011;64312;44.738;20.612;2022-11-20T00:40:56;12.63;;;6.38;;
75696;SDS011;64312;44.738;20.612;2022-11-20T00:43:25;13.80;;;6.55;;
75696;SDS011;64312;44.738;20.612;2022-11-20T00:48:22;10.57;;;5.90;;
75696;SDS011;64312;44.738;20.612;2022-11-20T00:50:48;11.88;;;6.43;;
75696;SDS011;64312;44.738;20.612;2022-11-20T00:53:13;8.07;;;5.68;;
75696;SDS011;64312;44.738;20.612;2022-11-20T00:55:39;8.70;;;5.55;;
75696;SDS011;64312;44.738;20.612;2022-11-20T00:58:05;10.63;;;5.65;;
75696;SDS011;64312;44.738;20.612;2022-11-20T01:00:31;8.63;;;5.15;;
75696;SDS011;64312;44.738;20.612;2022-11-20T01:02:56;7.50;;;4.47;;
75696;SDS011;64312;44.738;20.612;2022-11-20T01:05:22;7.82;;;4.22;;
75696;SDS011;64312;44.738;20.612;2022-11-20T01:07:47;5.88;;;3.85;;
75696;SDS011;64312;44.738;20.612;2022-11-20T01:10:13;7.82;;;4.70;;
75696;SDS011;64312;44.738;20.612;2022-11-20T01:12:38;5.90;;;4.43;;
75696;SDS011;64312;44.738;20.612;2022-11-20T01:15:04;7.68;;;3.92;;
75696;SDS011;64312;44.738;20.612;2022-11-20T01:17:31;8.73;;;3.67;;
75696;SDS011;64312;44.738;20.612;2022-11-20T01:19:56;8.13;;;4.10;;
75696;SDS011;64312;44.738;20.612;2022-11-20T01:22:22;5.70;;;3.60;;
75696;SDS011;64312;44.738;20.612;2022-11-20T01:24:48;7.47;;;4.90;;
75696;SDS011;64312;44.738;20.612;2022-11-20T01:27:13;6.85;;;4.40;;
75696;SDS011;64312;44.738;20.612;2022-11-20T01:29:39;7.47;;;4.65;;
75696;SDS011;64312;44.738;20.612;2022-11-20T01:32:04;7.72;;;4.57;;
75696;SDS011;64312;44.738;20.612;2022-11-20T01:34:30;7.30;;;4.47;;
75696;SDS011;64312;44.738;20.612;2022-11-20T01:36:56;8.57;;;4.68;;
75696;SDS011;64312;44.738;20.612;2022-11-20T01:39:22;8.55;;;5.00;;
75696;SDS011;64312;44.738;20.612;2022-11-20T01:41:50;9.20;;;5.30;;
75696;SDS011;64312;44.738;20.612;2022-11-20T01:44:52;9.27;;;5.53;;
75696;SDS011;64312;44.738;20.612;2022-11-20T01:47:34;11.38;;;7.47;;
75696;SDS011;64312;44.738;20.612;2022-11-20T01:50:08;8.98;;;6.47;;
75696;SDS011;64312;44.738;20.612;2022-11-20T01:55:34;10.43;;;5.55;;
75696;SDS011;64312;44.738;20.612;2022-11-20T01:58:04;10.10;;;5.30;;
75696;SDS011;64312;44.738;20.612;2022-11-20T02:00:31;8.70;;;5.50;;
75696;SDS011;64312;44.738;20.612;2022-11-20T02:02:58;11.38;;;6.00;;
75696;SDS011;64312;44.738;20.612;2022-11-20T02:05:31;9.13;;;5.25;;
75696;SDS011;64312;44.738;20.612;2022-11-20T02:08:02;9.63;;;5.88;;
75696;SDS011;64312;44.738;20.612;2022-11-20T02:10:29;10.43;;;5.82;;
75696;SDS011;64312;44.738;20.612;2022-11-20T02:12:56;8.48;;;5.50;;
75696;SDS011;64312;44.738;20.612;2022-11-20T02:15:40;9.50;;;5.07;;
75696;SDS011;64312;44.738;20.612;2022-11-20T02:18:06;13.73;;;7.00;;
75696;SDS011;64312;44.738;20.612;2022-11-20T02:20:33;12.55;;;7.57;;
75696;SDS011;64312;44.738;20.612;2022-11-20T02:25:29;10.88;;;6.13;;
75696;SDS011;64312;44.738;20.612;2022-11-20T02:27:57;7.63;;;5.20;;
75696;SDS011;64312;44.738;20.612;2022-11-20T02:30:23;8.77;;;5.07;;
75696;SDS011;64312;44.738;20.612;2022-11-20T02:32:48;11.48;;;6.47;;
75696;SDS011;64312;44.738;20.612;2022-11-20T02:37:43;9.98;;;6.47;;
75696;SDS011;64312;44.738;20.612;2022-11-20T02:40:09;8.82;;;5.35;;
75696;SDS011;64312;44.738;20.612;2022-11-20T02:42:36;12.15;;;6.07;;
75696;SDS011;64312;44.738;20.612;2022-11-20T02:45:03;11.48;;;5.93;;
75696;SDS011;64312;44.738;20.612;2022-11-20T02:47:30;10.13;;;5.53;;
75696;SDS011;64312;44.738;20.612;2022-11-20T02:49:55;9.35;;;5.63;;
75696;SDS011;64312;44.738;20.612;2022-11-20T02:52:21;10.13;;;5.50;;
75696;SDS011;64312;44.738;20.612;2022-11-20T02:54:47;9.07;;;5.53;;
75696;SDS011;64312;44.738;20.612;2022-11-20T02:57:13;10.25;;;5.53;;
75696;SDS011;64312;44.738;20.612;2022-11-20T02:59:39;11.45;;;6.25;;
75696;SDS011;64312;44.738;20.612;2022-11-20T03:02:05;10.02;;;5.93;;
75696;SDS011;64312;44.738;20.612;2022-11-20T03:04:30;9.35;;;5.65;;
75696;SDS011;64312;44.738;20.612;2022-11-20T03:06:56;10.25;;;5.88;;
75696;SDS011;64312;44.738;20.612;2022-11-20T03:09:21;10.27;;;5.40;;
75696;SDS011;64312;44.738;20.612;2022-11-20T03:11:47;12.98;;;6.57;;
75696;SDS011;64312;44.738;20.612;2022-11-20T03:14:12;11.45;;;7.00;;
75696;SDS011;64312;44.738;20.612;2022-11-20T03:16:38;10.60;;;5.63;;
75696;SDS011;64312;44.738;20.612;2022-11-20T03:19:04;11.00;;;6.07;;
75696;SDS011;64312;44.738;20.612;2022-11-20T03:21:29;11.73;;;6.13;;
75696;SDS011;64312;44.738;20.612;2022-11-20T03:23:55;10.73;;;5.90;;
75696;SDS011;64312;44.738;20.612;2022-11-20T03:26:21;13.23;;;6.18;;
75696;SDS011;64312;44.738;20.612;2022-11-20T03:28:53;14.73;;;7.13;;
75696;SDS011;64312;44.738;20.612;2022-11-20T03:31:22;15.38;;;8.27;;
75696;SDS011;64312;44.738;20.612;2022-11-20T03:33:52;13.85;;;7.70;;
75696;SDS011;64312;44.738;20.612;2022-11-20T03:36:18;15.85;;;8.18;;
75696;SDS011;64312;44.738;20.612;2022-11-20T03:38:46;16.02;;;8.70;;
75696;SDS011;64312;44.738;20.612;2022-11-20T03:41:16;13.05;;;7.65;;
75696;SDS011;64312;44.738;20.612;2022-11-20T03:43:47;13.07;;;7.95;;
75696;SDS011;64312;44.738;20.612;2022-11-20T03:46:14;15.98;;;8.30;;
75696;SDS011;64312;44.738;20.612;2022-11-20T03:48:40;14.52;;;7.13;;
75696;SDS011;64312;44.738;20.612;2022-11-20T03:51:09;10.88;;;6.18;;
75696;SDS011;64312;44.738;20.612;2022-11-20T03:53:38;12.48;;;6.60;;
75696;SDS011;64312;44.738;20.612;2022-11-20T03:56:05;11.90;;;7.10;;
75696;SDS011;64312;44.738;20.612;2022-11-20T03:58:32;12.07;;;7.20;;
75696;SDS011;64312;44.738;20.612;2022-11-20T04:01:03;14.90;;;8.50;;
75696;SDS011;64312;44.738;20.612;2022-11-20T04:03:30;15.10;;;8.20;;
75696;SDS011;64312;44.738;20.612;2022-11-20T04:06:00;14.40;;;8.23;;
75696;SDS011;64312;44.738;20.612;2022-11-20T04:08:28;13.00;;;7.80;;
75696;SDS011;64312;44.738;20.612;2022-11-20T04:10:53;14.77;;;7.50;;
75696;SDS011;64312;44.738;20.612;2022-11-20T04:13:19;15.52;;;8.77;;
75696;SDS011;64312;44.738;20.612;2022-11-20T04:15:45;14.75;;;8.88;;
75696;SDS011;64312;44.738;20.612;2022-11-20T04:18:10;14.68;;;7.20;;
75696;SDS011;64312;44.738;20.612;2022-11-20T04:20:36;11.43;;;6.65;;
75696;SDS011;64312;44.738;20.612;2022-11-20T04:23:01;14.85;;;7.45;;
75696;SDS011;64312;44.738;20.612;2022-11-20T04:25:28;11.93;;;7.20;;
75696;SDS011;64312;44.738;20.612;2022-11-20T04:27:53;14.50;;;7.47;;
75696;SDS011;64312;44.738;20.612;2022-11-20T04:30:20;14.63;;;7.43;;
75696;SDS011;64312;44.738;20.612;2022-11-20T04:32:45;16.08;;;7.57;;
75696;SDS011;64312;44.738;20.612;2022-11-20T04:35:11;18.35;;;9.07;;
75696;SDS011;64312;44.738;20.612;2022-11-20T04:37:36;17.50;;;8.02;;
75696;SDS011;64312;44.738;20.612;2022-11-20T04:40:02;18.63;;;8.27;;
75696;SDS011;64312;44.738;20.612;2022-11-20T04:42:27;12.75;;;7.03;;
75696;SDS011;64312;44.738;20.612;2022-11-20T04:44:53;16.25;;;8.05;;
75696;SDS011;64312;44.738;20.612;2022-11-20T04:47:19;16.90;;;8.10;;
75696;SDS011;64312;44.738;20.612;2022-11-20T04:49:45;18.52;;;7.72;;
75696;SDS011;64312;44.738;20.612;2022-11-20T04:52:10;14.85;;;7.20;;
75696;SDS011;64312;44.738;20.612;2022-11-20T04:54:36;14.75;;;6.65;;
75696;SDS011;64312;44.738;20.612;2022-11-20T04:57:01;14.88;;;6.82;;
75696;SDS011;64312;44.738;20.612;2022-11-20T04:59:27;11.40;;;6.00;;
75696;SDS011;64312;44.738;20.612;2022-11-20T05:01:53;18.05;;;7.28;;
75696;SDS011;64312;44.738;20.612;2022-11-20T05:04:18;13.07;;;6.50;;
75696;SDS011;64312;44.738;20.612;2022-11-20T05:06:44;22.20;;;10.57;;
75696;SDS011;64312;44.738;20.612;2022-11-20T05:09:11;18.80;;;9.02;;
75696;SDS011;64312;44.738;20.612;2022-11-20T05:11:37;25.73;;;12.02;;
75696;SDS011;64312;44.738;20.612;2022-11-20T05:14:04;23.52;;;11.32;;
75696;SDS011;64312;44.738;20.612;2022-11-20T05:16:29;21.48;;;11.38;;
75696;SDS011;64312;44.738;20.612;2022-11-20T05:18:55;31.30;;;14.60;;
75696;SDS011;64312;44.738;20.612;2022-11-20T05:21:21;25.13;;;11.82;;
75696;SDS011;64312;44.738;20.612;2022-11-20T05:23:47;28.35;;;12.95;;
75696;SDS011;64312;44.738;20.612;2022-11-20T05:26:14;29.38;;;13.30;;
75696;SDS011;64312;44.738;20.612;2022-11-20T05:28:44;29.17;;;12.88;;
75696;SDS011;64312;44.738;20.612;2022-11-20T05:31:15;30.20;;;14.30;;
75696;SDS011;64312;44.738;20.612;2022-11-20T05:33:42;32.28;;;13.63;;
75696;SDS011;64312;44.738;20.612;2022-11-20T05:36:09;29.58;;;15.25;;
75696;SDS011;64312;44.738;20.612;2022-11-20T05:38:36;29.85;;;12.75;;
75696;SDS011;64312;44.738;20.612;2022-11-20T05:41:03;22.25;;;10.18;;
75696;SDS011;64312;44.738;20.612;2022-11-20T05:43:31;30.65;;;13.07;;
75696;SDS011;64312;44.738;20.612;2022-11-20T05:45:58;25.60;;;12.10;;
75696;SDS011;64312;44.738;20.612;2022-11-20T05:48:24;27.10;;;10.65;;
75696;SDS011;64312;44.738;20.612;2022-11-20T05:50:50;26.00;;;12.00;;
75696;SDS011;64312;44.738;20.612;2022-11-20T05:53:15;24.23;;;11.55;;
75696;SDS011;64312;44.738;20.612;2022-11-20T05:55:41;26.80;;;11.40;;
75696;SDS011;64312;44.738;20.612;2022-11-20T05:58:07;27.00;;;11.93;;
75696;SDS011;64312;44.738;20.612;2022-11-20T06:00:32;34.13;;;14.55;;
75696;SDS011;64312;44.738;20.612;2022-11-20T06:02:58;26.55;;;12.82;;
75696;SDS011;64312;44.738;20.612;2022-11-20T06:05:24;29.52;;;13.75;;
75696;SDS011;64312;44.738;20.612;2022-11-20T06:07:50;30.70;;;14.30;;
75696;SDS011;64312;44.738;20.612;2022-11-20T06:10:15;26.23;;;12.80;;
75696;SDS011;64312;44.738;20.612;2022-11-20T06:12:41;26.67;;;14.07;;
75696;SDS011;64312;44.738;20.612;2022-11-20T06:15:06;25.23;;;11.70;;
75696;SDS011;64312;44.738;20.612;2022-11-20T06:17:33;27.25;;;12.27;;
75696;SDS011;64312;44.738;20.612;2022-11-20T06:19:58;29.92;;;14.20;;
75696;SDS011;64312;44.738;20.612;2022-11-20T06:22:24;28.77;;;12.00;;
75696;SDS011;64312;44.738;20.612;2022-11-20T06:24:50;24.73;;;11.90;;
75696;SDS011;64312;44.738;20.612;2022-11-20T06:27:15;24.45;;;11.50;;
75696;SDS011;64312;44.738;20.612;2022-11-20T06:29:42;30.00;;;13.85;;
75696;SDS011;64312;44.738;20.612;2022-11-20T06:32:07;33.85;;;15.32;;
75696;SDS011;64312;44.738;20.612;2022-11-20T06:34:33;29.45;;;13.25;;
75696;SDS011;64312;44.738;20.612;2022-11-20T06:36:59;45.33;;;21.58;;
75696;SDS011;64312;44.738;20.612;2022-11-20T06:39:25;29.92;;;16.73;;
75696;SDS011;64312;44.738;20.612;2022-11-20T06:41:51;27.45;;;16.05;;
75696;SDS011;64312;44.738;20.612;2022-11-20T06:44:16;28.10;;;15.13;;
75696;SDS011;64312;44.738;20.612;2022-11-20T06:46:42;31.67;;;16.23;;
75696;SDS011;64312;44.738;20.612;2022-11-20T06:49:07;23.52;;;12.13;;
75696;SDS011;64312;44.738;20.612;2022-11-20T06:51:33;26.35;;;12.65;;
75696;SDS011;64312;44.738;20.612;2022-11-20T06:53:59;23.42;;;12.20;;
75696;SDS011;64312;44.738;20.612;2022-11-20T06:56:26;27.63;;;12.48;;
75696;SDS011;64312;44.738;20.612;2022-11-20T06:58:52;22.30;;;11.40;;
75696;SDS011;64312;44.738;20.612;2022-11-20T07:01:18;25.45;;;12.48;;
75696;SDS011;64312;44.738;20.612;2022-11-20T07:03:43;19.90;;;10.35;;
75696;SDS011;64312;44.738;20.612;2022-11-20T07:06:09;19.35;;;9.50;;
75696;SDS011;64312;44.738;20.612;2022-11-20T07:08:36;25.75;;;11.88;;
75696;SDS011;64312;44.738;20.612;2022-11-20T07:11:03;22.45;;;9.73;;
75696;SDS011;64312;44.738;20.612;2022-11-20T07:13:31;26.92;;;12.38;;
75696;SDS011;64312;44.738;20.612;2022-11-20T07:16:01;28.85;;;14.48;;
75696;SDS011;64312;44.738;20.612;2022-11-20T07:18:29;30.25;;;13.55;;
75696;SDS011;64312;44.738;20.612;2022-11-20T07:20:54;27.90;;;13.55;;
75696;SDS011;64312;44.738;20.612;2022-11-20T07:23:21;28.73;;;14.63;;
75696;SDS011;64312;44.738;20.612;2022-11-20T07:25:46;30.58;;;14.10;;
75696;SDS011;64312;44.738;20.612;2022-11-20T07:28:12;45.85;;;20.48;;
75696;SDS011;64312;44.738;20.612;2022-11-20T07:30:38;35.55;;;18.80;;
75696;SDS011;64312;44.738;20.612;2022-11-20T07:33:04;40.10;;;19.45;;
75696;SDS011;64312;44.738;20.612;2022-11-20T07:35:29;38.58;;;18.92;;
75696;SDS011;64312;44.738;20.612;2022-11-20T07:37:55;41.45;;;19.75;;
75696;SDS011;64312;44.738;20.612;2022-11-20T07:40:21;34.40;;;15.27;;
75696;SDS011;64312;44.738;20.612;2022-11-20T07:42:47;33.17;;;15.57;;
75696;SDS011;64312;44.738;20.612;2022-11-20T07:45:15;36.03;;;17.02;;
75696;SDS011;64312;44.738;20.612;2022-11-20T07:47:41;43.42;;;20.23;;
75696;SDS011;64312;44.738;20.612;2022-11-20T07:50:07;38.35;;;19.17;;
75696;SDS011;64312;44.738;20.612;2022-11-20T07:52:33;41.97;;;19.52;;
75696;SDS011;64312;44.738;20.612;2022-11-20T07:54:58;38.58;;;16.95;;
75696;SDS011;64312;44.738;20.612;2022-11-20T07:57:26;28.45;;;16.10;;
75696;SDS011;64312;44.738;20.612;2022-11-20T07:59:52;29.75;;;14.52;;
75696;SDS011;64312;44.738;20.612;2022-11-20T08:02:17;26.30;;;13.57;;
75696;SDS011;64312;44.738;20.612;2022-11-20T08:04:44;32.25;;;16.33;;
75696;SDS011;64312;44.738;20.612;2022-11-20T08:07:10;31.23;;;13.05;;
75696;SDS011;64312;44.738;20.612;2022-11-20T08:09:35;31.83;;;15.00;;
75696;SDS011;64312;44.738;20.612;2022-11-20T08:12:01;26.92;;;14.02;;
75696;SDS011;64312;44.738;20.612;2022-11-20T08:14:46;22.83;;;10.80;;
75696;SDS011;64312;44.738;20.612;2022-11-20T08:17:11;19.10;;;10.18;;
75696;SDS011;64312;44.738;20.612;2022-11-20T08:19:37;19.67;;;10.60;;
75696;SDS011;64312;44.738;20.612;2022-11-20T08:22:03;21.38;;;12.07;;
75696;SDS011;64312;44.738;20.612;2022-11-20T08:24:28;29.40;;;12.48;;
75696;SDS011;64312;44.738;20.612;2022-11-20T08:26:56;24.45;;;11.85;;
75696;SDS011;64312;44.738;20.612;2022-11-20T08:29:23;21.60;;;11.32;;
75696;SDS011;64312;44.738;20.612;2022-11-20T08:31:48;24.00;;;13.05;;
75696;SDS011;64312;44.738;20.612;2022-11-20T08:34:14;19.35;;;10.82;;
75696;SDS011;64312;44.738;20.612;2022-11-20T08:36:40;20.65;;;11.35;;
75696;SDS011;64312;44.738;20.612;2022-11-20T08:39:05;20.45;;;9.95;;
75696;SDS011;64312;44.738;20.612;2022-11-20T08:41:31;19.50;;;11.23;;
75696;SDS011;64312;44.738;20.612;2022-11-20T08:44:04;20.48;;;11.00;;
75696;SDS011;64312;44.738;20.612;2022-11-20T08:46:33;19.85;;;9.95;;
75696;SDS011;64312;44.738;20.612;2022-11-20T08:49:02;17.77;;;11.15;;
75696;SDS011;64312;44.738;20.612;2022-11-20T08:51:28;18.02;;;8.13;;
75696;SDS011;64312;44.738;20.612;2022-11-20T08:53:54;15.52;;;9.18;;
75696;SDS011;64312;44.738;20.612;2022-11-20T08:56:20;22.10;;;11.35;;
75696;SDS011;64312;44.738;20.612;2022-11-20T08:58:45;15.23;;;8.70;;
75696;SDS011;64312;44.738;20.612;2022-11-20T09:01:11;16.13;;;9.15;;
75696;SDS011;64312;44.738;20.612;2022-11-20T09:03:37;11.32;;;7.25;;
75696;SDS011;64312;44.738;20.612;2022-11-20T09:06:04;12.93;;;6.68;;
75696;SDS011;64312;44.738;20.612;2022-11-20T09:08:31;15.10;;;8.00;;
75696;SDS011;64312;44.738;20.612;2022-11-20T09:10:58;16.30;;;7.82;;
75696;SDS011;64312;44.738;20.612;2022-11-20T09:13:25;14.00;;;7.20;;
75696;SDS011;64312;44.738;20.612;2022-11-20T09:18:24;20.92;;;9.65;;
75696;SDS011;64312;44.738;20.612;2022-11-20T09:20:50;16.85;;;8.00;;
75696;SDS011;64312;44.738;20.612;2022-11-20T09:23:16;12.82;;;7.78;;
75696;SDS011;64312;44.738;20.612;2022-11-20T09:25:43;17.35;;;8.20;;
75696;SDS011;64312;44.738;20.612;2022-11-20T09:28:08;13.18;;;7.75;;
75696;SDS011;64312;44.738;20.612;2022-11-20T09:30:35;14.43;;;7.15;;
75696;SDS011;64312;44.738;20.612;2022-11-20T09:33:00;12.48;;;7.15;;
75696;SDS011;64312;44.738;20.612;2022-11-20T09:35:26;17.20;;;8.23;;
75696;SDS011;64312;44.738;20.612;2022-11-20T09:37:52;14.05;;;6.97;;
75696;SDS011;64312;44.738;20.612;2022-11-20T09:56:01;14.63;;;7.05;;
75696;SDS011;64312;44.738;20.612;2022-11-20T09:58:31;18.85;;;8.50;;
75696;SDS011;64312;44.738;20.612;2022-11-20T10:01:12;20.85;;;8.32;;
75696;SDS011;64312;44.738;20.612;2022-11-20T10:03:51;17.98;;;8.63;;
75696;SDS011;64312;44.738;20.612;2022-11-20T10:06:31;20.98;;;7.80;;
75696;SDS011;64312;44.738;20.612;2022-11-20T10:17:12;23.60;;;11.27;;
75696;SDS011;64312;44.738;20.612;2022-11-20T10:30:43;17.25;;;8.30;;
75696;SDS011;64312;44.738;20.612;2022-11-20T10:33:19;21.02;;;9.30;;
75696;SDS011;64312;44.738;20.612;2022-11-20T10:36:11;18.42;;;9.10;;
75696;SDS011;64312;44.738;20.612;2022-11-20T10:38:44;21.27;;;10.75;;
75696;SDS011;64312;44.738;20.612;2022-11-20T10:41:26;22.67;;;11.48;;
75696;SDS011;64312;44.738;20.612;2022-11-20T10:44:00;26.38;;;13.88;;
75696;SDS011;64312;44.738;20.612;2022-11-20T10:46:40;28.70;;;15.68;;
75696;SDS011;64312;44.738;20.612;2022-11-20T10:49:16;27.85;;;13.45;;
75696;SDS011;64312;44.738;20.612;2022-11-20T10:57:00;26.60;;;12.65;;
75696;SDS011;64312;44.738;20.612;2022-11-20T11:02:21;34.25;;;15.13;;
75696;SDS011;64312;44.738;20.612;2022-11-20T11:04:54;33.47;;;15.45;;
75696;SDS011;64312;44.738;20.612;2022-11-20T11:10:11;36.10;;;15.80;;
75696;SDS011;64312;44.738;20.612;2022-11-20T11:12:42;31.98;;;15.73;;
75696;SDS011;64312;44.738;20.612;2022-11-20T11:15:13;30.80;;;13.50;;
75696;SDS011;64312;44.738;20.612;2022-11-20T11:17:49;34.97;;;15.65;;
75696;SDS011;64312;44.738;20.612;2022-11-20T11:20:17;36.50;;;14.35;;
75696;SDS011;64312;44.738;20.612;2022-11-20T11:25:19;33.88;;;14.45;;
75696;SDS011;64312;44.738;20.612;2022-11-20T11:27:49;35.53;;;14.23;;
75696;SDS011;64312;44.738;20.612;2022-11-20T11:30:16;32.58;;;14.90;;
75696;SDS011;64312;44.738;20.612;2022-11-20T11:32:43;32.00;;;13.57;;
75696;SDS011;64312;44.738;20.612;2022-11-20T11:37:50;30.88;;;12.55;;
75696;SDS011;64312;44.738;20.612;2022-11-20T11:40:19;30.48;;;13.50;;
75696;SDS011;64312;44.738;20.612;2022-11-20T11:42:50;40.20;;;15.25;;
75696;SDS011;64312;44.738;20.612;2022-11-20T11:45:29;30.30;;;14.90;;
75696;SDS011;64312;44.738;20.612;2022-11-20T11:47:56;30.80;;;12.45;;
75696;SDS011;64312;44.738;20.612;2022-11-20T11:50:29;27.98;;;13.48;;
75696;SDS011;64312;44.738;20.612;2022-11-20T12:06:58;21.10;;;10.18;;
75696;SDS011;64312;44.738;20.612;2022-11-20T12:09:41;20.10;;;9.52;;
75696;SDS011;64312;44.738;20.612;2022-11-20T12:12:18;26.08;;;11.23;;
75696;SDS011;64312;44.738;20.612;2022-11-20T12:14:47;28.42;;;13.30;;
75696;SDS011;64312;44.738;20.612;2022-11-20T12:17:16;23.77;;;10.52;;
75696;SDS011;64312;44.738;20.612;2022-11-20T12:19:43;30.13;;;12.50;;
75696;SDS011;64312;44.738;20.612;2022-11-20T12:30:26;29.77;;;13.65;;
75696;SDS011;64312;44.738;20.612;2022-11-20T12:37:54;29.38;;;14.15;;
75696;SDS011;64312;44.738;20.612;2022-11-20T12:40:48;34.72;;;14.45;;
75696;SDS011;64312;44.738;20.612;2022-11-20T12:43:27;35.33;;;14.88;;
75696;SDS011;64312;44.738;20.612;2022-11-20T12:46:21;27.90;;;14.10;;
75696;SDS011;64312;44.738;20.612;2022-11-20T13:07:25;26.38;;;12.23;;
75696;SDS011;64312;44.738;20.612;2022-11-20T13:09:53;23.98;;;11.35;;
75696;SDS011;64312;44.738;20.612;2022-11-20T13:12:25;28.15;;;14.43;;
75696;SDS011;64312;44.738;20.612;2022-11-20T13:17:54;27.48;;;13.18;;
75696;SDS011;64312;44.738;20.612;2022-11-20T13:20:23;30.58;;;14.20;;
75696;SDS011;64312;44.738;20.612;2022-11-20T13:22:50;30.63;;;14.25;;
75696;SDS011;64312;44.738;20.612;2022-11-20T13:27:50;33.10;;;13.88;;
75696;SDS011;64312;44.738;20.612;2022-11-20T13:30:18;25.42;;;13.10;;
75696;SDS011;64312;44.738;20.612;2022-11-20T13:32:52;28.48;;;12.63;;
75696;SDS011;64312;44.738;20.612;2022-11-20T13:35:55;27.42;;;12.48;;
75696;SDS011;64312;44.738;20.612;2022-11-20T13:38:26;26.35;;;11.48;;
75696;SDS011;64312;44.738;20.612;2022-11-20T13:40:53;22.65;;;12.02;;
75696;SDS011;64312;44.738;20.612;2022-11-20T13:45:59;25.88;;;11.48;;
75696;SDS011;64312;44.738;20.612;2022-11-20T13:48:34;23.35;;;10.63;;
75696;SDS011;64312;44.738;20.612;2022-11-20T14:01:53;29.50;;;12.15;;
75696;SDS011;64312;44.738;20.612;2022-11-20T14:04:20;26.77;;;12.65;;
75696;SDS011;64312;44.738;20.612;2022-11-20T14:06:52;25.02;;;11.93;;
75696;SDS011;64312;44.738;20.612;2022-11-20T14:09:25;23.25;;;11.35;;
75696;SDS011;64312;44.738;20.612;2022-11-20T14:11:53;20.73;;;10.77;;
75696;SDS011;64312;44.738;20.612;2022-11-20T14:14:19;18.23;;;9.98;;
75696;SDS011;64312;44.738;20.612;2022-11-20T14:16:47;20.63;;;9.35;;
75696;SDS011;64312;44.738;20.612;2022-11-20T14:21:49;24.35;;;11.18;;
75696;SDS011;64312;44.738;20.612;2022-11-20T14:24:21;23.13;;;11.40;;
75696;SDS011;64312;44.738;20.612;2022-11-20T14:26:49;34.83;;;17.23;;
75696;SDS011;64312;44.738;20.612;2022-11-20T14:29:16;26.63;;;13.82;;
75696;SDS011;64312;44.738;20.612;2022-11-20T14:31:44;22.02;;;11.07;;
75696;SDS011;64312;44.738;20.612;2022-11-20T14:34:15;19.33;;;10.32;;
75696;SDS011;64312;44.738;20.612;2022-11-20T14:36:44;25.02;;;11.93;;
75696;SDS011;64312;44.738;20.612;2022-11-20T14:39:20;23.42;;;11.77;;
75696;SDS011;64312;44.738;20.612;2022-11-20T14:41:52;23.00;;;10.48;;
75696;SDS011;64312;44.738;20.612;2022-11-20T14:44:26;31.73;;;13.75;;
75696;SDS011;64312;44.738;20.612;2022-11-20T14:46:55;30.65;;;15.15;;
75696;SDS011;64312;44.738;20.612;2022-11-20T14:49:22;35.03;;;15.93;;
75696;SDS011;64312;44.738;20.612;2022-11-20T14:51:58;42.70;;;18.38;;
75696;SDS011;64312;44.738;20.612;2022-11-20T14:54:28;30.38;;;15.70;;
75696;SDS011;64312;44.738;20.612;2022-11-20T14:57:00;33.25;;;15.95;;
75696;SDS011;64312;44.738;20.612;2022-11-20T14:59:28;35.80;;;15.98;;
75696;SDS011;64312;44.738;20.612;2022-11-20T15:01:59;26.27;;;13.57;;
75696;SDS011;64312;44.738;20.612;2022-11-20T15:04:28;38.88;;;16.77;;
75696;SDS011;64312;44.738;20.612;2022-11-20T15:06:54;28.05;;;13.60;;
75696;SDS011;64312;44.738;20.612;2022-11-20T15:09:21;30.38;;;13.00;;
75696;SDS011;64312;44.738;20.612;2022-11-20T15:11:57;27.83;;;12.20;;
75696;SDS011;64312;44.738;20.612;2022-11-20T15:14:25;28.42;;;12.95;;
75696;SDS011;64312;44.738;20.612;2022-11-20T15:16:52;24.83;;;11.77;;
75696;SDS011;64312;44.738;20.612;2022-11-20T15:19:20;25.75;;;12.27;;
75696;SDS011;64312;44.738;20.612;2022-11-20T15:21:47;23.52;;;11.63;;
75696;SDS011;64312;44.738;20.612;2022-11-20T15:24:13;25.27;;;12.05;;
75696;SDS011;64312;44.738;20.612;2022-11-20T15:26:39;27.20;;;13.88;;
75696;SDS011;64312;44.738;20.612;2022-11-20T15:29:08;25.15;;;12.25;;
75696;SDS011;64312;44.738;20.612;2022-11-20T15:31:36;33.20;;;14.32;;
75696;SDS011;64312;44.738;20.612;2022-11-20T15:34:02;29.73;;;12.27;;
75696;SDS011;64312;44.738;20.612;2022-11-20T15:36:28;29.80;;;13.43;;
75696;SDS011;64312;44.738;20.612;2022-11-20T15:38:54;35.78;;;14.93;;
75696;SDS011;64312;44.738;20.612;2022-11-20T15:41:19;29.90;;;14.15;;
75696;SDS011;64312;44.738;20.612;2022-11-20T15:43:45;23.98;;;12.10;;
75696;SDS011;64312;44.738;20.612;2022-11-20T15:46:12;28.75;;;14.88;;
75696;SDS011;64312;44.738;20.612;2022-11-20T15:48:45;20.98;;;12.80;;
75696;SDS011;64312;44.738;20.612;2022-11-20T15:53:51;21.55;;;10.07;;
75696;SDS011;64312;44.738;20.612;2022-11-20T15:56:18;17.63;;;9.45;;
75696;SDS011;64312;44.738;20.612;2022-11-20T15:58:43;17.60;;;10.10;;
75696;SDS011;64312;44.738;20.612;2022-11-20T16:01:13;19.20;;;9.57;;
75696;SDS011;64312;44.738;20.612;2022-11-20T16:03:44;18.27;;;8.63;;
75696;SDS011;64312;44.738;20.612;2022-11-20T16:06:10;15.20;;;8.30;;
75696;SDS011;64312;44.738;20.612;2022-11-20T16:08:36;20.55;;;10.23;;
75696;SDS011;64312;44.738;20.612;2022-11-20T16:11:02;17.90;;;9.13;;
75696;SDS011;64312;44.738;20.612;2022-11-20T16:13:30;18.77;;;9.98;;
75696;SDS011;64312;44.738;20.612;2022-11-20T16:18:48;22.45;;;11.85;;
75696;SDS011;64312;44.738;20.612;2022-11-20T16:21:14;22.00;;;11.27;;
75696;SDS011;64312;44.738;20.612;2022-11-20T16:23:40;25.95;;;12.60;;
75696;SDS011;64312;44.738;20.612;2022-11-20T16:26:14;24.48;;;13.35;;
75696;SDS011;64312;44.738;20.612;2022-11-20T16:28:42;26.75;;;13.65;;
75696;SDS011;64312;44.738;20.612;2022-11-20T16:31:09;22.10;;;11.80;;
75696;SDS011;64312;44.738;20.612;2022-11-20T16:33:39;21.67;;;11.65;;
75696;SDS011;64312;44.738;20.612;2022-11-20T16:36:11;21.75;;;11.18;;
75696;SDS011;64312;44.738;20.612;2022-11-20T16:38:40;20.83;;;10.65;;
75696;SDS011;64312;44.738;20.612;2022-11-20T16:41:06;27.08;;;13.05;;